YVR weather

Vancouver International Airport
Vancouver, British Columbia, Canada

Public forecast

Using degrees Celsius for public forecast. Weather courtesy of forecast.io.

METAR (pilot weather report)

Retrieved 2018/12/13 18:40 UTC (0 seconds ago):

CYVR 131840Z 07011KT 3SM RA BR SCT008 OVC011 07/06 A2997 RMK SF3NS5 SLP150

TAF (pilot weather forecast)

Retrieved 2018/12/13 18:39 UTC (0 seconds ago):

TAF CYVR 131738Z 1318/1424 09015KT 6SM RA BR SCT008 OVC012 TEMPO 1318/1321 4SM +RA BR FEW005 OVC008 FM132100 09015KT P6SM -RA FEW008 SCT015 OVC025 TEMPO 1321/1409 5SM RA BR SCT008 OVC015 BECMG 1402/1404 13015KT FM140900 10015KT P6SM FEW015 SCT030 BKN070 FM141500 09012KT P6SM SCT090 BKN150 FM142100 13020KT P6SM OVC070 RMK NXT FCST BY 132100Z